Time;durP1;ratioP1;P1;durP2;ratioP2;P2;SDS_P1;SDS_P2;PMS_P1;PMS_P2;Temp;Humidity;BMP_temperature;BMP_pressure;BME280_temperature;BME280_humidity;BME280_pressure;Samples;Min_cycle;Max_cycle;Signal;HPM_P1;HPM_P2
2024/01/15 00:00:42;;;;;;;;;;;;;;;-17.25;57.55;97421.78;6256837;28;19932;-66
2024/01/15 00:03:43;;;;;;;;;;;;;;;-17.30;57.70;97425.72;6267815;28;20394;-67
2024/01/15 00:06:44;;;;;;;;;;;;;;;-17.09;57.00;97421.78;6269157;28;20367;-67
2024/01/15 00:09:45;;;;;;;;;;;;;;;-17.10;56.86;97436.78;6267251;28;19920;-66
2024/01/15 00:12:46;;;;;;;;;;;;;;;-17.09;56.60;97441.06;6267802;28;19921;-66
2024/01/15 00:15:49;;;;;;;;;;;;;;;-17.15;56.84;97434.06;6269139;28;19924;-67
2024/01/15 00:18:52;;;;;;;;;;;;;;;-17.18;57.07;97436.41;6268905;28;19916;-66
2024/01/15 00:21:57;;;;;;;;;;;;;;;-17.16;57.01;97431.47;6269172;28;20561;-67
2024/01/15 00:25:00;;;;;;;;;;;;;;;-17.02;57.29;97441.44;6272007;28;20536;-66
2024/01/15 00:28:03;;;;;;;;;;;;;;;-17.02;57.43;97435.53;6272002;28;19920;-66
2024/01/15 00:31:07;;;;;;;;;;;;;;;-17.04;57.29;97435.47;6273819;28;19928;-67
2024/01/15 00:34:11;;;;;;;;;;;;;;;-17.01;57.40;97444.81;6273915;28;20553;-66
2024/01/15 00:37:13;;;;;;;;;;;;;;;-16.88;57.19;97437.09;6273742;28;19921;-66
2024/01/15 00:40:16;;;;;;;;;;;;;;;-16.65;57.04;97439.84;6272195;28;19921;-67
2024/01/15 00:43:18;;;;;;;;;;;;;;;-16.65;56.41;97432.31;6273196;28;19921;-66
2024/01/15 00:46:22;;;;;;;;;;;;;;;-16.58;56.76;97436.84;6273684;28;20476;-66
2024/01/15 00:49:24;;;;;;;;;;;;;;;-16.72;56.58;97435.31;6273513;28;20382;-67
2024/01/15 00:52:25;;;;;;;;;;;;;;;-16.66;56.67;97438.13;6273087;28;19928;-66
2024/01/15 00:55:27;;;;;;;;;;;;;;;-16.69;56.62;97438.00;6271675;28;20390;-67
2024/01/15 00:58:28;;;;;;;;;;;;;;;-16.59;56.70;97441.00;6271816;28;20517;-67
2024/01/15 01:01:29;;;;;;;;;;;;;;;-16.45;56.05;97440.81;6248335;28;19925;-67
2024/01/15 01:04:33;;;;;;;;;;;;;;;-16.52;56.40;97422.91;6248364;28;19924;-66
2024/01/15 01:07:38;;;;;;;;;;;;;;;-16.52;56.21;97434.63;6248305;28;19953;-65
2024/01/15 01:10:39;;;;;;;;;;;;;;;-16.46;56.30;97429.88;6247772;28;20386;-66
2024/01/15 01:13:40;;;;;;;;;;;;;;;-16.45;56.62;97435.78;6248023;28;19921;-67
2024/01/15 01:16:41;;;;;;;;;;;;;;;-16.32;56.29;97438.97;6247993;28;20389;-67
2024/01/15 01:19:42;;;;;;;;;;;;;;;-16.27;55.84;97443.34;6248085;28;20139;-66
2024/01/15 01:22:43;;;;;;;;;;;;;;;-16.30;55.86;97450.00;6248145;28;19944;-66
2024/01/15 01:25:44;;;;;;;;;;;;;;;-16.60;55.82;97461.94;6247869;28;19921;-66
2024/01/15 01:28:49;;;;;;;;;;;;;;;-16.76;55.87;97469.56;6247669;28;20084;-67
2024/01/15 01:31:50;;;;;;;;;;;;;;;-16.90;55.36;97481.44;6247116;28;19966;-67
2024/01/15 01:34:51;;;;;;;;;;;;;;;-17.28;54.94;97482.88;6247330;28;19921;-67
2024/01/15 01:37:55;;;;;;;;;;;;;;;-17.69;55.09;97494.13;6247075;28;19921;-66
2024/01/15 01:40:58;;;;;;;;;;;;;;;-18.04;54.97;97488.84;6247447;28;19925;-67
2024/01/15 01:44:00;;;;;;;;;;;;;;;-18.22;55.78;97499.59;6247472;28;20310;-67
2024/01/15 01:47:03;;;;;;;;;;;;;;;-18.74;56.50;97501.69;6247739;28;20282;-67
2024/01/15 01:50:04;;;;;;;;;;;;;;;-18.61;56.39;97490.69;6247092;28;19921;-67
2024/01/15 01:53:05;;;;;;;;;;;;;;;-18.44;57.44;97492.50;6246652;28;19921;-67
2024/01/15 01:56:09;;;;;;;;;;;;;;;-18.39;57.27;97500.31;6246982;28;20417;-66
2024/01/15 01:59:11;;;;;;;;;;;;;;;-18.02;58.31;97509.91;6246808;28;19921;-66
2024/01/15 02:02:12;;;;;;;;;;;;;;;-17.86;58.36;97492.34;6246976;28;19921;-66
2024/01/15 02:05:13;;;;;;;;;;;;;;;-17.66;58.34;97493.41;6246778;28;19951;-66
2024/01/15 02:08:15;;;;;;;;;;;;;;;-17.59;58.08;97489.59;6246875;28;19927;-66
2024/01/15 02:11:19;;;;;;;;;;;;;;;-17.58;58.18;97497.19;6246652;28;19920;-66
2024/01/15 02:14:22;;;;;;;;;;;;;;;-17.47;57.97;97497.75;6246542;28;20023;-66
2024/01/15 02:17:23;;;;;;;;;;;;;;;-17.42;58.18;97501.41;6246274;28;20022;-66
2024/01/15 02:20:25;;;;;;;;;;;;;;;-17.39;58.30;97504.06;6246449;28;19921;-65
2024/01/15 02:23:26;;;;;;;;;;;;;;;-17.26;58.39;97506.47;6245421;28;19920;-66
2024/01/15 02:26:29;;;;;;;;;;;;;;;-17.19;58.01;97511.81;6246557;28;19924;-68
2024/01/15 02:29:36;;;;;;;;;;;;;;;-17.14;58.38;97507.88;6246037;28;19940;-66
2024/01/15 02:32:37;;;;;;;;;;;;;;;-17.16;58.33;97522.03;6245781;28;20395;-66
2024/01/15 02:35:38;;;;;;;;;;;;;;;-16.87;58.33;97516.84;6246157;28;19921;-67
2024/01/15 02:38:41;;;;;;;;;;;;;;;-16.83;58.33;97525.44;6245712;28;20386;-67
2024/01/15 02:41:42;;;;;;;;;;;;;;;-16.69;58.10;97508.50;6246005;28;20318;-68
2024/01/15 02:44:45;;;;;;;;;;;;;;;-16.51;57.70;97524.50;6227645;28;19917;-66
2024/01/15 02:47:46;;;;;;;;;;;;;;;-16.41;57.48;97511.59;6246734;28;20409;-67
2024/01/15 02:50:47;;;;;;;;;;;;;;;-16.33;57.34;97517.88;6269484;28;19939;-67
2024/01/15 02:53:51;;;;;;;;;;;;;;;-16.36;57.52;97520.25;6270310;28;19920;-66
2024/01/15 02:56:55;;;;;;;;;;;;;;;-16.22;56.96;97525.06;6252860;28;19921;-66
2024/01/15 02:59:56;;;;;;;;;;;;;;;-16.14;57.29;97519.63;6269861;28;20433;-66
2024/01/15 03:02:57;;;;;;;;;;;;;;;-16.32;57.10;97514.56;6269791;28;19927;-66
2024/01/15 03:06:01;;;;;;;;;;;;;;;-16.43;57.42;97529.94;6269569;28;19921;-67
2024/01/15 03:09:03;;;;;;;;;;;;;;;-16.54;57.28;97532.78;6269462;28;20382;-67
2024/01/15 03:12:04;;;;;;;;;;;;;;;-16.48;57.54;97537.25;6269415;28;19920;-66
2024/01/15 03:15:10;;;;;;;;;;;;;;;-16.57;57.81;97539.31;6269880;28;19941;-66
2024/01/15 03:18:11;;;;;;;;;;;;;;;-16.57;57.53;97546.88;6269624;28;19921;-66
2024/01/15 03:21:14;;;;;;;;;;;;;;;-16.73;58.00;97549.38;6269521;28;19921;-66
2024/01/15 03:24:16;;;;;;;;;;;;;;;-16.99;58.40;97557.34;6269382;28;19927;-66
2024/01/15 03:27:17;;;;;;;;;;;;;;;-16.92;58.83;97576.16;6268937;28;20027;-66
2024/01/15 03:30:18;;;;;;;;;;;;;;;-16.83;58.43;97573.25;6269644;28;20421;-65
2024/01/15 03:33:21;;;;;;;;;;;;;;;-16.69;58.01;97581.50;6269494;28;19931;-65
2024/01/15 03:36:22;;;;;;;;;;;;;;;-16.84;58.09;97586.63;6269448;28;19921;-66
2024/01/15 03:39:26;;;;;;;;;;;;;;;-16.63;57.56;97587.72;6234877;28;20294;-66
2024/01/15 03:42:30;;;;;;;;;;;;;;;-16.63;57.16;97576.78;6269169;28;20403;-66
2024/01/15 03:45:33;;;;;;;;;;;;;;;-16.66;57.32;97585.03;6269323;28;19936;-67
2024/01/15 03:48:37;;;;;;;;;;;;;;;-16.83;57.41;97593.41;6243000;28;20333;-66
2024/01/15 03:51:38;;;;;;;;;;;;;;;-17.06;57.17;97595.56;6244350;28;19921;-66
2024/01/15 03:54:39;;;;;;;;;;;;;;;-17.10;57.57;97601.22;6244123;28;19932;-65
2024/01/15 03:57:40;;;;;;;;;;;;;;;-17.13;57.08;97612.75;6244344;28;19940;-65
2024/01/15 04:00:41;;;;;;;;;;;;;;;-17.43;57.40;97617.88;6243831;28;19920;-66
2024/01/15 04:03:44;;;;;;;;;;;;;;;-17.41;57.69;97630.53;6259579;28;19920;-65
2024/01/15 04:06:48;;;;;;;;;;;;;;;-17.31;57.67;97626.09;6244584;28;20341;-66
2024/01/15 04:09:49;;;;;;;;;;;;;;;-17.73;57.77;97632.97;6244069;28;20302;-66
2024/01/15 04:12:52;;;;;;;;;;;;;;;-17.54;57.97;97631.50;6226664;28;20294;-67
2024/01/15 04:15:57;;;;;;;;;;;;;;;-17.83;58.32;97635.78;6244144;28;20345;-67
2024/01/15 04:18:58;;;;;;;;;;;;;;;-17.96;58.66;97638.38;6226559;28;20421;-67
2024/01/15 04:22:04;;;;;;;;;;;;;;;-18.10;58.69;97639.25;6243966;28;20067;-66
2024/01/15 04:25:05;;;;;;;;;;;;;;;-18.00;58.78;97636.47;6244251;28;19921;-68
2024/01/15 04:28:06;;;;;;;;;;;;;;;-17.94;58.35;97646.88;6243409;28;20047;-66
2024/01/15 04:31:07;;;;;;;;;;;;;;;-17.93;58.31;97648.59;6243841;28;19928;-66
2024/01/15 04:34:08;;;;;;;;;;;;;;;-17.71;57.41;97656.56;6225817;28;19921;-66
2024/01/15 04:37:13;;;;;;;;;;;;;;;-17.78;57.45;97659.53;6243901;28;19925;-67
2024/01/15 04:40:15;;;;;;;;;;;;;;;-17.70;56.99;97668.34;6243949;28;19921;-66
2024/01/15 04:43:16;;;;;;;;;;;;;;;-17.88;57.05;97674.88;6243928;28;20337;-67
2024/01/15 04:46:19;;;;;;;;;;;;;;;-17.84;56.84;97678.41;6243562;28;19963;-67
2024/01/15 04:49:21;;;;;;;;;;;;;;;-18.35;56.77;97688.03;6257298;28;19947;-67
2024/01/15 04:52:23;;;;;;;;;;;;;;;-18.72;58.08;97684.94;6268399;28;19966;-65
2024/01/15 04:55:24;;;;;;;;;;;;;;;-18.76;57.69;97704.00;6268426;28;20612;-66
2024/01/15 04:58:28;;;;;;;;;;;;;;;-19.03;57.34;97699.00;6269223;28;19916;-67
2024/01/15 05:01:32;;;;;;;;;;;;;;;-19.20;58.20;97709.63;6268185;28;19921;-67
2024/01/15 05:04:34;;;;;;;;;;;;;;;-19.14;57.44;97717.53;6267799;28;20054;-66
2024/01/15 05:07:39;;;;;;;;;;;;;;;-19.00;56.96;97717.53;6268215;28;19917;-66
2024/01/15 05:10:41;;;;;;;;;;;;;;;-19.04;57.05;97707.31;6268877;28;19916;-66
2024/01/15 05:13:42;;;;;;;;;;;;;;;-19.03;56.97;97716.56;6253950;28;20070;-68
2024/01/15 05:16:46;;;;;;;;;;;;;;;-18.91;56.92;97718.97;6271766;28;19928;-66
2024/01/15 05:19:50;;;;;;;;;;;;;;;-18.91;56.78;97713.94;6272412;28;19927;-66
2024/01/15 05:22:53;;;;;;;;;;;;;;;-18.80;57.16;97717.97;6271734;28;19936;-67
2024/01/15 05:25:54;;;;;;;;;;;;;;;-18.89;57.11;97721.56;6272129;28;19927;-67
2024/01/15 05:28:55;;;;;;;;;;;;;;;-18.81;57.43;97730.44;6272260;28;19921;-67
2024/01/15 05:31:55;;;;;;;;;;;;;;;-18.79;57.60;97728.91;6271396;28;20120;-67
2024/01/15 05:34:59;;;;;;;;;;;;;;;-18.99;57.27;97724.28;6272430;28;19920;-67
2024/01/15 05:38:02;;;;;;;;;;;;;;;-18.80;57.51;97727.16;6271250;28;20051;-66
2024/01/15 05:41:04;;;;;;;;;;;;;;;-18.48;57.43;97750.81;6254318;28;19921;-67
2024/01/15 05:44:08;;;;;;;;;;;;;;;-18.46;57.10;97746.75;6272122;28;19920;-66
2024/01/15 05:47:10;;;;;;;;;;;;;;;-18.45;56.94;97751.00;6271034;28;19925;-67
2024/01/15 05:50:13;;;;;;;;;;;;;;;-18.57;57.32;97739.47;6249925;28;19920;-66
2024/01/15 05:53:14;;;;;;;;;;;;;;;-18.60;57.58;97739.25;6229484;28;19921;-67
2024/01/15 05:56:21;;;;;;;;;;;;;;;-18.53;57.25;97743.03;6229700;28;19925;-66
2024/01/15 05:59:22;;;;;;;;;;;;;;;-18.59;57.74;97743.53;6246787;28;19974;-68
2024/01/15 06:02:23;;;;;;;;;;;;;;;-18.49;58.22;97744.06;6246272;28;20393;-66
2024/01/15 06:05:26;;;;;;;;;;;;;;;-18.33;58.42;97746.75;6246688;28;20393;-67
2024/01/15 06:08:27;;;;;;;;;;;;;;;-18.18;58.24;97751.81;6245988;28;19921;-67
2024/01/15 06:11:32;;;;;;;;;;;;;;;-17.72;57.56;97760.38;6246460;28;19991;-67
2024/01/15 06:14:33;;;;;;;;;;;;;;;-17.53;56.78;97756.44;6245831;28;19931;-67
2024/01/15 06:17:34;;;;;;;;;;;;;;;-17.62;56.74;97755.91;6245640;28;20394;-68
2024/01/15 06:20:39;;;;;;;;;;;;;;;-17.47;56.70;97752.63;6245712;28;20007;-67
2024/01/15 06:23:40;;;;;;;;;;;;;;;-17.16;55.25;97753.50;6245536;28;19921;-66
2024/01/15 06:26:43;;;;;;;;;;;;;;;-17.38;55.38;97761.47;6246079;28;19921;-67
2024/01/15 06:29:47;;;;;;;;;;;;;;;-17.38;55.44;97756.44;6245535;28;19921;-67
2024/01/15 06:32:50;;;;;;;;;;;;;;;-17.36;55.59;97765.81;6246005;28;19921;-67
2024/01/15 06:35:51;;;;;;;;;;;;;;;-17.19;54.99;97758.38;6245394;28;20408;-67
2024/01/15 06:38:54;;;;;;;;;;;;;;;-17.35;55.42;97752.47;6246012;28;19921;-67
2024/01/15 06:41:57;;;;;;;;;;;;;;;-17.39;55.71;97755.56;6246044;28;20305;-66
2024/01/15 06:44:58;;;;;;;;;;;;;;;-17.13;55.45;97756.19;6245434;28;19928;-67
2024/01/15 06:47:59;;;;;;;;;;;;;;;-16.97;55.27;97751.22;6248744;28;20541;-67
2024/01/15 06:51:01;;;;;;;;;;;;;;;-16.95;54.99;97753.81;6269863;28;19920;-67
2024/01/15 06:54:02;;;;;;;;;;;;;;;-16.75;54.86;97754.13;6269943;28;20382;-68
2024/01/15 06:57:03;;;;;;;;;;;;;;;-16.85;54.93;97744.34;6270158;28;20027;-66
2024/01/15 07:00:07;;;;;;;;;;;;;;;-16.95;55.10;97738.72;6269169;28;20001;-67
2024/01/15 07:03:08;;;;;;;;;;;;;;;-16.85;55.70;97733.41;6269813;28;19920;-65
2024/01/15 07:06:10;;;;;;;;;;;;;;;-16.52;55.68;97736.88;6269546;28;19973;-67
2024/01/15 07:09:11;;;;;;;;;;;;;;;-16.17;54.60;97722.75;6270042;28;20425;-66
2024/01/15 07:12:16;;;;;;;;;;;;;;;-15.93;54.62;97725.69;6251788;28;19927;-68
2024/01/15 07:15:17;;;;;;;;;;;;;;;-15.79;54.23;97734.81;6269232;28;19921;-66
2024/01/15 07:18:18;;;;;;;;;;;;;;;-15.60;53.29;97731.50;6269219;28;19920;-66
2024/01/15 07:21:19;;;;;;;;;;;;;;;-15.70;53.80;97740.31;6269395;28;20398;-67
2024/01/15 07:24:20;;;;;;;;;;;;;;;-15.41;53.38;97749.31;6269142;28;19925;-67
2024/01/15 07:27:23;;;;;;;;;;;;;;;-12.41;50.03;97759.94;6269770;28;19921;-68
2024/01/15 07:30:26;;;;;;;;;;;;;;;-8.87;44.81;97748.28;6269566;28;19920;-68
2024/01/15 07:33:29;;;;;;;;;;;;;;;-6.39;39.89;97757.63;6267961;28;19921;-68
2024/01/15 07:36:31;;;;;;;;;;;;;;;-4.94;36.65;97761.19;6269531;28;19920;-66
2024/01/15 07:39:38;;;;;;;;;;;;;;;-3.10;34.93;97766.75;6269538;28;19920;-69
2024/01/15 07:42:39;;;;;;;;;;;;;;;-1.81;32.09;97758.25;6269048;28;19921;-67
2024/01/15 07:45:40;;;;;;;;;;;;;;;-0.15;32.26;97762.59;6268975;28;20317;-68
2024/01/15 07:48:43;;;;;;;;;;;;;;;2.33;32.93;97768.06;6259671;28;19921;-66
2024/01/15 07:51:44;;;;;;;;;;;;;;;4.13;31.25;97763.34;6243973;28;19921;-68
2024/01/15 07:54:46;;;;;;;;;;;;;;;5.20;30.30;97758.72;6243759;28;19921;-67
2024/01/15 07:57:47;;;;;;;;;;;;;;;5.30;31.23;97766.25;6244081;28;19928;-67
2024/01/15 08:00:50;;;;;;;;;;;;;;;5.89;29.86;97764.44;6244374;28;20290;-67
2024/01/15 08:03:55;;;;;;;;;;;;;;;6.71;28.99;97768.72;6244239;28;20102;-67
2024/01/15 08:06:56;;;;;;;;;;;;;;;7.00;29.27;97762.44;6243584;28;20383;-68
2024/01/15 08:09:58;;;;;;;;;;;;;;;8.00;29.29;97763.88;6243702;28;19943;-67
2024/01/15 08:13:01;;;;;;;;;;;;;;;8.34;26.15;97765.97;6244290;28;20317;-67
2024/01/15 08:16:03;;;;;;;;;;;;;;;8.70;27.62;97778.47;6243912;28;19921;-67
2024/01/15 08:19:05;;;;;;;;;;;;;;;7.21;21.97;97776.50;6243703;28;19944;-68
2024/01/15 08:22:08;;;;;;;;;;;;;;;5.80;20.30;97771.69;6243371;28;19944;-68
2024/01/15 08:25:09;;;;;;;;;;;;;;;5.93;20.72;97779.13;6243766;28;19928;-68
2024/01/15 08:28:11;;;;;;;;;;;;;;;4.70;22.63;97764.50;6244028;28;20299;-68
2024/01/15 08:31:12;;;;;;;;;;;;;;;5.16;23.92;97758.81;6244128;28;20289;-69
2024/01/15 08:34:15;;;;;;;;;;;;;;;5.57;22.21;97771.53;6243809;28;19923;-68
2024/01/15 08:37:17;;;;;;;;;;;;;;;5.64;22.91;97760.03;6243600;28;19928;-68
2024/01/15 08:40:19;;;;;;;;;;;;;;;4.94;21.92;97774.22;6243830;28;19924;-67
2024/01/15 08:43:23;;;;;;;;;;;;;;;4.43;22.40;97772.13;6243762;28;19924;-68
2024/01/15 08:46:26;;;;;;;;;;;;;;;4.40;22.17;97777.44;6247251;28;19925;-68
2024/01/15 08:49:34;;;;;;;;;;;;;;;3.99;21.35;97797.56;6249182;28;19921;-67
2024/01/15 08:52:35;;;;;;;;;;;;;;;3.53;21.64;97795.97;6248401;28;20397;-69
2024/01/15 08:55:38;;;;;;;;;;;;;;;3.83;19.81;97785.78;6248482;28;19920;-68
2024/01/15 08:58:45;;;;;;;;;;;;;;;3.75;21.50;97798.13;6248064;28;19920;-67
2024/01/15 09:01:53;;;;;;;;;;;;;;;3.42;21.02;97795.34;6230918;28;19921;-68
2024/01/15 09:04:56;;;;;;;;;;;;;;;3.83;21.88;97801.41;6248026;28;20310;-68
2024/01/15 09:07:58;;;;;;;;;;;;;;;3.83;20.17;97793.59;6247414;28;19928;-68
2024/01/15 09:11:02;;;;;;;;;;;;;;;2.99;20.08;97790.19;6246862;28;19921;-68
2024/01/15 09:14:04;;;;;;;;;;;;;;;2.76;20.99;97782.84;6247688;28;19920;-68
2024/01/15 09:17:09;;;;;;;;;;;;;;;3.17;21.33;97788.97;6248029;28;19968;-67
2024/01/15 09:20:10;;;;;;;;;;;;;;;3.86;21.43;97790.91;6247864;28;19944;-69
2024/01/15 09:23:15;;;;;;;;;;;;;;;4.03;20.64;97814.81;6247762;28;19927;-68
2024/01/15 09:26:16;;;;;;;;;;;;;;;3.63;19.91;97811.41;6247769;28;19921;-68
2024/01/15 09:29:20;;;;;;;;;;;;;;;2.19;20.96;97797.72;6247106;28;20011;-68
2024/01/15 09:32:23;;;;;;;;;;;;;;;2.13;21.35;97804.75;6230484;28;19921;-68
2024/01/15 09:35:24;;;;;;;;;;;;;;;1.92;20.46;97790.38;6246709;28;19967;-68
2024/01/15 09:38:27;;;;;;;;;;;;;;;0.91;21.08;97774.50;6229653;28;19920;-68
2024/01/15 09:41:28;;;;;;;;;;;;;;;0.11;21.41;97784.81;6246904;28;19928;-68
2024/01/15 09:44:29;;;;;;;;;;;;;;;0.20;21.32;97788.19;6246493;28;20368;-68
2024/01/15 09:47:30;;;;;;;;;;;;;;;0.97;22.17;97794.28;6247329;28;19920;-67
2024/01/15 09:50:31;;;;;;;;;;;;;;;1.71;21.03;97795.00;6270755;28;19923;-68
2024/01/15 09:53:42;;;;;;;;;;;;;;;1.35;21.19;97799.81;6271724;28;19920;-68
2024/01/15 09:56:48;;;;;;;;;;;;;;;0.95;21.12;97793.44;6236973;28;20298;-68
2024/01/15 09:59:52;;;;;;;;;;;;;;;1.05;21.91;97810.63;6271263;28;20065;-69
2024/01/15 10:02:56;;;;;;;;;;;;;;;1.39;22.07;97786.81;6271316;28;19921;-68
2024/01/15 10:06:03;;;;;;;;;;;;;;;1.54;21.10;97794.41;6271244;28;19924;-69
2024/01/15 10:09:04;;;;;;;;;;;;;;;1.35;21.31;97781.69;6271654;28;19921;-68
2024/01/15 10:12:07;;;;;;;;;;;;;;;0.15;22.18;97786.50;6253399;28;19920;-68
2024/01/15 10:15:10;;;;;;;;;;;;;;;0.54;22.24;97799.94;6270008;28;19928;-68
2024/01/15 10:18:16;;;;;;;;;;;;;;;1.73;21.86;97790.66;6271426;28;20382;-68
2024/01/15 10:21:19;;;;;;;;;;;;;;;2.34;21.13;97795.75;6271233;28;19921;-68
2024/01/15 10:24:21;;;;;;;;;;;;;;;0.96;21.09;97792.56;6270785;28;19927;-68
2024/01/15 10:27:24;;;;;;;;;;;;;;;-0.05;22.33;97799.63;6270970;28;19920;-69
2024/01/15 10:30:28;;;;;;;;;;;;;;;-2.29;22.12;97790.09;6271129;28;19920;-68
2024/01/15 10:33:32;;;;;;;;;;;;;;;-5.58;25.81;97809.16;6270772;28;19994;-67
2024/01/15 10:36:35;;;;;;;;;;;;;;;-7.85;28.26;97808.53;6270802;28;20390;-67
2024/01/15 10:39:42;;;;;;;;;;;;;;;-9.87;29.92;97806.72;6270553;28;20132;-68
2024/01/15 10:42:47;;;;;;;;;;;;;;;-12.01;32.50;97802.91;6270481;28;20013;-69
2024/01/15 10:45:51;;;;;;;;;;;;;;;-13.26;34.11;97814.81;6269921;28;19927;-68
2024/01/15 10:48:52;;;;;;;;;;;;;;;-13.59;35.38;97807.47;6259287;28;19921;-66
2024/01/15 10:51:53;;;;;;;;;;;;;;;-14.40;36.66;97818.09;6244942;28;19943;-69
2024/01/15 10:55:00;;;;;;;;;;;;;;;-14.92;37.25;97826.59;6245765;28;19920;-68
2024/01/15 10:58:04;;;;;;;;;;;;;;;-14.96;38.44;97818.00;6245832;28;19923;-67
2024/01/15 11:01:05;;;;;;;;;;;;;;;-15.10;38.71;97826.56;6244976;28;20004;-66
2024/01/15 11:04:12;;;;;;;;;;;;;;;-15.67;39.47;97826.19;6244914;28;19921;-67
2024/01/15 11:07:14;;;;;;;;;;;;;;;-15.71;40.75;97828.50;6244711;28;19928;-68
2024/01/15 11:10:33;;;;;;;;;;;;;;;-16.34;41.55;97838.63;6244147;28;20023;-67
2024/01/15 11:13:46;;;;;;;;;;;;;;;-16.89;41.92;97845.66;6244455;28;19921;-69
2024/01/15 11:16:54;;;;;;;;;;;;;;;-17.07;42.44;97854.66;6244910;28;20397;-67
2024/01/15 11:19:58;;;;;;;;;;;;;;;-17.10;42.76;97847.81;6226718;28;20317;-67
2024/01/15 11:23:02;;;;;;;;;;;;;;;-17.18;43.52;97848.16;6244274;28;19928;-67
2024/01/15 11:26:23;;;;;;;;;;;;;;;-17.68;43.69;97842.75;6243991;28;19921;-68
2024/01/15 11:29:27;;;;;;;;;;;;;;;-17.68;44.18;97842.75;6244473;28;20082;-67
2024/01/15 11:32:33;;;;;;;;;;;;;;;-17.67;44.83;97848.66;6244255;28;20421;-68
2024/01/15 11:36:01;;;;;;;;;;;;;;;-17.92;45.58;97848.84;6244900;28;20002;-68
2024/01/15 11:39:40;;;;;;;;;;;;;;;-17.84;46.40;97845.16;6243051;28;19921;-67
2024/01/15 11:42:41;;;;;;;;;;;;;;;-18.04;46.95;97850.63;6169880;28;20323;-68
2024/01/15 11:45:45;;;;;;;;;;;;;;;-17.95;47.28;97847.03;6244206;28;19920;-67
2024/01/15 11:48:50;;;;;;;;;;;;;;;-18.40;47.17;97845.06;6243718;28;19933;-68
2024/01/15 11:51:53;;;;;;;;;;;;;;;-18.66;47.13;97836.75;6243659;28;20020;-70
2024/01/15 11:54:54;;;;;;;;;;;;;;;-18.91;47.52;97851.06;6243582;28;20306;-68
2024/01/15 11:57:57;;;;;;;;;;;;;;;-18.97;47.29;97848.16;6243740;28;20044;-69
2024/01/15 12:00:59;;;;;;;;;;;;;;;-18.75;48.18;97845.41;6243699;28;20007;-67
2024/01/15 12:04:00;;;;;;;;;;;;;;;-18.97;48.73;97848.16;6244102;28;19921;-68
2024/01/15 12:07:02;;;;;;;;;;;;;;;-19.20;48.72;97850.06;6243771;28;19917;-69
2024/01/15 12:10:07;;;;;;;;;;;;;;;-19.10;50.18;97851.53;6243459;28;21387;-67
2024/01/15 12:13:15;;;;;;;;;;;;;;;-19.31;49.99;97861.88;6244030;28;19921;-68
2024/01/15 12:16:16;;;;;;;;;;;;;;;-19.26;50.71;97864.69;6244265;28;19929;-68
2024/01/15 12:19:18;;;;;;;;;;;;;;;-19.41;50.67;97876.25;6243784;28;19921;-68
2024/01/15 12:22:21;;;;;;;;;;;;;;;-19.68;50.87;97873.63;6248623;28;19979;-68
2024/01/15 12:25:25;;;;;;;;;;;;;;;-19.62;51.63;97886.53;6248347;28;19928;-70
2024/01/15 12:28:27;;;;;;;;;;;;;;;-19.80;50.98;97881.19;6230793;28;20387;-68
2024/01/15 12:31:29;;;;;;;;;;;;;;;-19.78;51.60;97881.31;6248058;28;19964;-68
2024/01/15 12:34:33;;;;;;;;;;;;;;;-19.82;51.13;97884.34;6248877;28;20306;-66
2024/01/15 12:37:39;;;;;;;;;;;;;;;-19.76;50.76;97882.25;6248892;28;20019;-67
2024/01/15 12:40:46;;;;;;;;;;;;;;;-19.72;50.55;97884.22;6248148;28;19921;-68
2024/01/15 12:43:48;;;;;;;;;;;;;;;-19.67;50.24;97882.00;6247941;28;19928;-67
2024/01/15 12:46:51;;;;;;;;;;;;;;;-19.30;51.38;97887.81;6248601;28;20458;-68
2024/01/15 12:49:55;;;;;;;;;;;;;;;-19.16;51.33;97884.63;6248118;28;19928;-67
2024/01/15 12:52:59;;;;;;;;;;;;;;;-19.39;51.38;97887.22;6248420;28;19921;-68
2024/01/15 12:56:01;;;;;;;;;;;;;;;-19.51;51.14;97893.16;6247862;28;20398;-69
2024/01/15 12:59:04;;;;;;;;;;;;;;;-19.58;50.60;97878.47;6247737;28;20358;-69
2024/01/15 13:02:09;;;;;;;;;;;;;;;-19.64;51.25;97890.59;6247207;28;19921;-68
2024/01/15 13:05:13;;;;;;;;;;;;;;;-19.64;50.99;97894.72;6229838;28;20024;-67
2024/01/15 13:08:14;;;;;;;;;;;;;;;-19.63;50.84;97897.34;6247656;28;19921;-68
2024/01/15 13:11:15;;;;;;;;;;;;;;;-19.49;51.04;97900.78;6247122;28;19927;-67
2024/01/15 13:14:16;;;;;;;;;;;;;;;-19.40;51.31;97898.88;6247076;28;19928;-68
2024/01/15 13:17:21;;;;;;;;;;;;;;;-19.40;50.68;97910.56;6247682;28;20451;-68
2024/01/15 13:20:22;;;;;;;;;;;;;;;-19.46;51.28;97902.63;6246580;28;19928;-69
2024/01/15 13:23:25;;;;;;;;;;;;;;;-19.09;51.36;97893.41;6247022;28;20027;-68
2024/01/15 13:26:26;;;;;;;;;;;;;;;-19.24;52.32;97893.25;6246893;28;19920;-68
2024/01/15 13:29:29;;;;;;;;;;;;;;;-19.40;51.91;97900.53;6247008;28;20390;-67
2024/01/15 13:32:30;;;;;;;;;;;;;;;-19.51;51.80;97903.16;6245648;28;19921;-67
2024/01/15 13:35:35;;;;;;;;;;;;;;;-19.49;51.87;97899.13;6247263;28;20015;-69
2024/01/15 13:38:39;;;;;;;;;;;;;;;-19.28;52.16;97901.34;6246782;28;20385;-68
2024/01/15 13:41:40;;;;;;;;;;;;;;;-18.96;52.16;97895.06;6246379;28;19921;-68
2024/01/15 13:44:46;;;;;;;;;;;;;;;-18.88;52.06;97893.91;6247157;28;20437;-69
2024/01/15 13:47:49;;;;;;;;;;;;;;;-19.30;51.74;97895.34;6247375;28;19925;-69
2024/01/15 13:50:51;;;;;;;;;;;;;;;-19.45;52.32;97909.38;6246540;28;20301;-68
2024/01/15 13:53:52;;;;;;;;;;;;;;;-19.50;52.55;97904.03;6246414;28;20015;-68
2024/01/15 13:56:53;;;;;;;;;;;;;;;-19.59;52.47;97909.31;6246213;28;19928;-68
2024/01/15 13:59:55;;;;;;;;;;;;;;;-19.62;53.06;97914.09;6246773;28;19921;-69
2024/01/15 14:02:59;;;;;;;;;;;;;;;-19.80;53.30;97928.78;6246974;28;19921;-67
2024/01/15 14:06:03;;;;;;;;;;;;;;;-19.52;53.24;97926.50;6246732;28;19920;-68
2024/01/15 14:09:05;;;;;;;;;;;;;;;-19.62;52.88;97919.13;6246053;28;19921;-69
2024/01/15 14:12:08;;;;;;;;;;;;;;;-19.90;52.62;97921.41;6246482;28;19921;-68
2024/01/15 14:15:09;;;;;;;;;;;;;;;-20.37;52.99;97918.09;6245993;28;19921;-68
2024/01/15 14:18:14;;;;;;;;;;;;;;;-20.35;53.00;97914.06;6246921;28;20015;-69
2024/01/15 14:21:18;;;;;;;;;;;;;;;-20.44;52.72;97915.13;6246739;28;19921;-67
2024/01/15 14:24:19;;;;;;;;;;;;;;;-20.51;53.60;97907.97;6245997;28;19921;-67
2024/01/15 14:27:22;;;;;;;;;;;;;;;-20.60;52.89;97911.47;6246197;28;20434;-67
2024/01/15 14:30:25;;;;;;;;;;;;;;;-21.01;53.59;97917.72;6246498;28;19921;-68
2024/01/15 14:33:29;;;;;;;;;;;;;;;-20.98;54.36;97917.97;6246265;28;20027;-67
2024/01/15 14:36:32;;;;;;;;;;;;;;;-21.19;53.75;97906.41;6245949;28;19928;-67
2024/01/15 14:39:34;;;;;;;;;;;;;;;-21.31;53.41;97907.25;6245494;28;19920;-68
2024/01/15 14:42:35;;;;;;;;;;;;;;;-21.32;54.34;97915.47;6244825;28;19927;-67
2024/01/15 14:45:39;;;;;;;;;;;;;;;-21.18;53.84;97913.13;6244790;28;19928;-68
2024/01/15 14:48:44;;;;;;;;;;;;;;;-21.09;54.45;97928.81;6228738;28;20015;-67
2024/01/15 14:51:45;;;;;;;;;;;;;;;-21.17;54.17;97914.88;6245163;28;20346;-67
2024/01/15 14:54:47;;;;;;;;;;;;;;;-20.94;53.95;97907.44;6245045;28;19921;-67
2024/01/15 14:57:49;;;;;;;;;;;;;;;-21.16;54.67;97907.50;6245274;28;19925;-67
2024/01/15 15:00:50;;;;;;;;;;;;;;;-21.16;55.21;97896.63;6244926;28;20421;-67
2024/01/15 15:03:52;;;;;;;;;;;;;;;-21.30;55.45;97898.97;6245083;28;19921;-67
2024/01/15 15:06:53;;;;;;;;;;;;;;;-21.06;55.62;97904.03;6245542;28;19964;-68
2024/01/15 15:09:54;;;;;;;;;;;;;;;-21.03;56.16;97889.25;6244694;28;19928;-67
2024/01/15 15:12:57;;;;;;;;;;;;;;;-21.16;55.94;97894.13;6245324;28;19921;-67
2024/01/15 15:16:01;;;;;;;;;;;;;;;-21.08;55.82;97885.56;6245023;28;19921;-67
2024/01/15 15:19:03;;;;;;;;;;;;;;;-21.08;56.59;97875.56;6244876;28;20102;-68
2024/01/15 15:22:04;;;;;;;;;;;;;;;-20.94;56.88;97874.06;6244893;28;20047;-67
2024/01/15 15:25:08;;;;;;;;;;;;;;;-21.17;56.50;97885.75;6245247;28;19921;-66
2024/01/15 15:28:11;;;;;;;;;;;;;;;-21.08;56.77;97890.56;6244880;28;19921;-67
2024/01/15 15:31:12;;;;;;;;;;;;;;;-21.04;56.99;97877.50;6244279;28;20371;-67
2024/01/15 15:34:13;;;;;;;;;;;;;;;-21.01;57.67;97885.22;6226636;28;20059;-67
2024/01/15 15:37:16;;;;;;;;;;;;;;;-20.88;57.40;97902.00;6244641;28;20255;-67
2024/01/15 15:40:20;;;;;;;;;;;;;;;-21.08;57.42;97905.56;6244354;28;19927;-66
2024/01/15 15:43:21;;;;;;;;;;;;;;;-21.17;56.88;97915.75;6244194;28;19928;-68